Time;durP1;ratioP1;P1;durP2;ratioP2;P2;SDS_P1;SDS_P2;PMS_P1;PMS_P2;Temp;Humidity;BMP_temperature;BMP_pressure;BME280_temperature;BME280_humidity;BME280_pressure;Samples;Min_cycle;Max_cycle;Signal;HPM_P1;HPM_P2
2021/01/27 00:01:18;;;;;;;6.05;4.33;;;3.60;99.90;;;5.37;92.46;101573.74;1708369;74;24524;-76
2021/01/27 00:03:39;;;;;;;7.38;5.50;;;3.50;99.90;;;5.31;92.92;101564.41;1708362;74;24366;-76
2021/01/27 00:05:57;;;;;;;9.19;6.36;;;3.60;99.90;;;5.28;92.65;101564.72;1697116;73;25306;-75
2021/01/27 00:08:13;;;;;;;9.68;6.31;;;3.50;99.90;;;5.43;92.07;101551.15;1717947;74;24480;-75
2021/01/27 00:10:43;;;;;;;8.81;6.10;;;3.50;99.90;;;5.35;91.72;101546.07;1705785;73;24938;-76
2021/01/27 00:13:00;;;;;;;9.02;6.13;;;3.50;99.90;;;5.26;92.04;101540.12;1705008;74;24435;-75
2021/01/27 00:15:24;;;;;;;7.28;5.08;;;3.50;99.90;;;5.33;91.90;101538.27;1711635;74;24514;-76
2021/01/27 00:17:41;;;;;;;10.61;5.82;;;3.40;99.90;;;5.13;92.49;101538.23;1708071;74;24434;-76
2021/01/27 00:19:57;;;;;;;7.41;5.01;;;3.40;99.90;;;5.22;92.25;101533.45;1708088;74;25051;-75
2021/01/27 00:22:14;;;;;;;7.80;5.64;;;3.40;99.90;;;5.18;92.20;101540.20;1708867;74;24582;-76
2021/01/27 00:24:30;;;;;;;7.29;4.90;;;3.40;99.90;;;5.33;91.50;101539.95;1710297;74;24569;-77
2021/01/27 00:26:47;;;;;;;8.16;5.48;;;3.40;99.90;;;5.11;92.20;101544.61;1704538;74;24509;-74
2021/01/27 00:29:03;;;;;;;7.69;5.81;;;3.40;99.90;;;5.38;90.85;101546.20;1707274;74;24991;-76
2021/01/27 00:31:20;;;;;;;7.29;5.42;;;3.40;99.90;;;5.36;90.84;101544.84;1707879;74;24934;-75
2021/01/27 00:33:38;;;;;;;7.46;5.44;;;3.40;99.90;;;5.41;90.76;101553.67;1706561;74;24483;-74
2021/01/27 00:35:57;;;;;;;9.11;5.48;;;3.50;99.90;;;5.37;90.33;101550.90;1707978;74;24875;-76
2021/01/27 00:38:19;;;;;;;8.66;5.28;;;3.50;99.90;;;5.39;90.24;101548.84;1688937;75;24507;-75
2021/01/27 00:40:35;;;;;;;5.92;4.31;;;3.50;99.90;;;5.39;89.86;101544.11;1710851;74;24859;-76
2021/01/27 00:42:52;;;;;;;6.42;4.61;;;3.50;99.90;;;5.25;90.72;101545.23;1710464;74;24455;-75
2021/01/27 00:45:13;;;;;;;7.81;5.22;;;3.50;99.90;;;5.28;90.26;101544.92;1703154;74;24502;-77
2021/01/27 00:47:38;;;;;;;9.24;5.14;;;3.50;99.90;;;5.34;89.79;101543.03;1714311;73;24527;-77
2021/01/27 00:49:54;;;;;;;7.21;5.37;;;3.40;99.90;;;5.32;89.10;101544.25;1701127;73;24516;-75
2021/01/27 00:52:11;;;;;;;6.06;5.06;;;3.40;99.90;;;5.35;89.35;101549.94;1720227;73;24514;-74
2021/01/27 00:54:31;;;;;;;6.05;5.13;;;3.40;99.90;;;5.36;89.12;101545.27;1719539;73;25152;-76
2021/01/27 00:56:49;;;;;;;7.45;5.57;;;3.40;99.90;;;5.36;89.02;101550.00;1725697;73;24504;-75
2021/01/27 00:59:06;;;;;;;6.74;5.41;;;3.40;99.90;;;5.38;88.77;101547.48;1687132;75;24589;-76
2021/01/27 01:01:24;;;;;;;7.90;5.35;;;3.40;99.90;;;5.44;88.71;101546.45;1717999;73;24965;-76
2021/01/27 01:03:40;;;;;;;8.69;5.30;;;3.40;99.90;;;5.38;88.56;101545.80;1718440;73;24377;-75
2021/01/27 01:05:58;;;;;;;5.80;4.76;;;3.40;99.90;;;5.40;88.78;101541.59;1715143;73;24959;-75
2021/01/27 01:08:18;;;;;;;6.35;5.22;;;3.50;99.90;;;5.57;88.32;101539.69;1720828;73;24587;-75
2021/01/27 01:10:37;;;;;;;6.43;4.66;;;3.50;99.90;;;5.38;88.58;101535.47;1715740;73;25012;-76
2021/01/27 01:12:57;;;;;;;8.23;5.07;;;3.50;99.90;;;5.35;89.20;101535.74;1719345;73;24830;-74
2021/01/27 01:15:17;;;;;;;6.32;4.27;;;3.50;99.90;;;5.41;88.80;101533.41;1726109;73;24950;-76
2021/01/27 01:17:36;;;;;;;6.42;4.02;;;3.50;99.90;;;5.24;89.62;101521.09;1717634;73;24452;-75
2021/01/27 01:19:53;;;;;;;3.80;3.20;;;3.50;99.90;;;5.24;89.75;101518.91;1715566;73;24535;-76
2021/01/27 01:22:09;;;;;;;7.35;5.23;;;3.50;99.90;;;5.25;89.80;101515.53;1718148;73;24500;-76
2021/01/27 01:24:29;;;;;;;8.23;4.53;;;3.50;99.90;;;5.45;89.04;101514.66;1718547;73;24451;-76
2021/01/27 01:26:47;;;;;;;7.53;5.52;;;3.50;99.90;;;5.42;88.85;101507.65;1720027;73;24512;-77
2021/01/27 01:29:05;;;;;;;7.80;5.03;;;3.50;99.90;;;5.37;88.42;101494.09;1706816;73;24535;-75
2021/01/27 01:31:22;;;;;;;5.45;4.32;;;3.60;99.90;;;5.42;88.30;101502.92;1715012;73;24493;-75
2021/01/27 01:33:41;;;;;;;5.85;4.42;;;3.60;99.90;;;5.28;89.31;101491.14;1718565;73;24508;-75
2021/01/27 01:36:01;;;;;;;6.53;4.94;;;3.60;99.90;;;5.34;89.20;101483.20;1725063;73;24443;-75
2021/01/27 01:38:19;;;;;;;5.97;4.07;;;3.60;99.90;;;5.30;89.72;101483.02;1691105;75;24489;-78
2021/01/27 01:40:41;;;;;;;6.36;4.61;;;3.60;99.90;;;5.26;89.58;101469.12;1727856;73;24436;-75
2021/01/27 01:43:09;;;;;;;4.20;2.96;;;3.60;99.90;;;5.30;89.72;101479.15;1682199;75;24565;-75
2021/01/27 01:45:35;;;;;;;5.21;4.16;;;3.50;99.90;;;5.20;89.78;101466.70;1714876;74;24870;-76
2021/01/27 01:47:54;;;;;;;8.05;5.19;;;3.50;99.90;;;5.37;89.75;101470.85;1712450;74;24550;-75
2021/01/27 01:50:13;;;;;;;6.67;4.00;;;3.50;99.90;;;5.39;88.95;101471.37;1680969;76;24999;-74
2021/01/27 01:52:30;;;;;;;4.27;3.44;;;3.60;99.90;;;5.37;89.42;101458.83;1721642;74;24516;-76
2021/01/27 01:54:52;;;;;;;6.67;5.12;;;3.60;99.90;;;5.21;89.85;101449.98;1725436;74;24524;-76
2021/01/27 01:57:26;;;;;;;5.57;4.20;;;3.60;99.90;;;5.34;89.67;101446.20;1716593;73;24990;-75
2021/01/27 01:59:47;;;;;;;5.09;4.25;;;3.60;99.90;;;5.20;90.04;101455.08;1709963;74;24943;-76
2021/01/27 02:02:08;;;;;;;6.16;4.78;;;3.50;99.90;;;5.25;89.99;101450.56;1718432;74;24509;-74
2021/01/27 02:04:27;;;;;;;7.64;4.74;;;3.50;99.90;;;5.35;89.69;101447.55;1710949;74;24627;-75
2021/01/27 02:06:43;;;;;;;5.60;3.63;;;3.50;99.90;;;5.32;89.70;101438.39;1729168;74;24525;-76
2021/01/27 02:09:01;;;;;;;7.25;5.01;;;3.60;99.90;;;5.22;90.35;101423.73;1717736;73;24449;-75
2021/01/27 02:11:23;;;;;;;5.12;3.87;;;3.60;99.90;;;5.39;90.07;101429.20;1713133;74;24858;-75
2021/01/27 02:14:06;;;;;;;5.79;4.25;;;3.50;99.90;;;5.14;90.90;101410.95;1704175;74;24469;-76
2021/01/27 02:16:36;;;;;;;5.20;3.12;;;3.50;99.90;;;5.28;90.51;101404.22;1718491;74;24874;-76
2021/01/27 02:23:09;;;;;;;4.81;3.56;;;3.50;99.90;;;5.25;91.40;101389.04;1738748;72;25286;-74
2021/01/27 02:28:46;;;;;;;7.44;3.50;;;3.30;99.90;;;5.26;91.78;101391.68;1741660;72;25877;-75
2021/01/27 02:31:15;;;;;;;6.86;3.50;;;3.20;99.90;;;4.97;92.41;101388.70;1713011;73;24501;-76
2021/01/27 02:34:09;;;;;;;5.14;3.46;;;3.20;99.90;;;4.97;93.41;101368.95;1715550;73;24556;-77
2021/01/27 02:36:30;;;;;;;3.53;2.77;;;3.20;99.90;;;5.09;92.75;101373.31;1714785;75;25043;-75
2021/01/27 02:38:54;;;;;;;5.06;3.83;;;3.20;99.90;;;4.96;93.28;101363.73;1726533;73;24594;-75
2021/01/27 02:41:18;;;;;;;7.33;3.48;;;3.20;99.90;;;4.98;93.88;101369.41;1716058;73;25218;-76
2021/01/27 02:43:40;;;;;;;4.78;3.31;;;3.20;99.90;;;4.94;94.07;101366.25;1692086;75;24493;-76
2021/01/27 02:46:02;;;;;;;6.70;3.48;;;3.20;99.90;;;4.97;94.14;101359.92;1717068;74;24884;-75
2021/01/27 02:48:26;;;;;;;3.14;2.26;;;3.20;99.90;;;5.06;94.02;101358.14;1718623;73;24521;-75
2021/01/27 02:50:46;;;;;;;2.92;2.51;;;3.30;99.90;;;4.91;94.97;101348.06;1715998;74;24450;-76
2021/01/27 02:53:07;;;;;;;3.85;3.15;;;3.20;99.90;;;4.84;95.58;101340.88;1715188;74;24490;-76
2021/01/27 02:55:30;;;;;;;2.71;2.23;;;3.20;99.90;;;4.99;95.40;101336.76;1722239;73;24479;-75
2021/01/27 02:57:52;;;;;;;2.55;2.14;;;3.20;99.90;;;4.96;95.33;101338.83;1726448;73;25000;-75
2021/01/27 03:00:14;;;;;;;4.43;2.91;;;3.30;99.90;;;5.01;95.41;101340.30;1715134;73;24480;-76
2021/01/27 03:02:36;;;;;;;4.60;3.03;;;3.30;99.90;;;5.02;95.38;101342.04;1714790;73;24561;-75
2021/01/27 03:04:59;;;;;;;3.99;2.67;;;3.30;99.90;;;5.02;95.69;101329.14;1715035;73;24453;-75
2021/01/27 03:07:21;;;;;;;3.03;2.55;;;3.40;99.90;;;5.01;95.39;101318.36;1715091;73;24399;-75
2021/01/27 03:09:44;;;;;;;3.16;2.54;;;3.40;99.90;;;4.97;95.52;101308.31;1718086;73;24493;-75
2021/01/27 03:12:00;;;;;;;4.57;2.71;;;3.40;99.90;;;5.01;95.51;101311.91;1716632;73;24543;-75
2021/01/27 03:14:16;;;;;;;5.27;2.72;;;3.40;99.90;;;5.10;95.08;101309.69;1680082;74;24539;-74
2021/01/27 03:16:37;;;;;;;3.53;1.99;;;3.40;99.90;;;4.99;95.27;101309.67;1717430;73;24527;-75
2021/01/27 03:19:01;;;;;;;4.03;2.46;;;3.40;99.90;;;4.95;95.92;101307.36;1726596;73;24471;-76
2021/01/27 03:21:21;;;;;;;2.57;2.18;;;3.40;99.90;;;5.04;95.71;101314.20;1714960;73;24879;-78
2021/01/27 03:23:44;;;;;;;3.25;2.52;;;3.30;99.90;;;4.87;96.17;101315.20;1715470;73;24535;-76
2021/01/27 03:26:05;;;;;;;2.88;2.43;;;3.30;99.90;;;4.91;96.00;101310.66;1722530;73;24491;-76
2021/01/27 03:28:26;;;;;;;3.38;2.90;;;3.30;99.90;;;4.94;95.71;101310.77;1708198;74;24901;-76
2021/01/27 03:30:48;;;;;;;3.60;3.05;;;3.30;99.90;;;4.95;96.29;101311.67;1703993;74;24631;-75
2021/01/27 03:33:09;;;;;;;2.78;2.48;;;3.30;99.90;;;5.00;95.92;101312.30;1705532;75;24574;-75
2021/01/27 03:35:32;;;;;;;2.77;2.06;;;3.30;99.90;;;4.90;96.54;101308.02;1712103;74;24657;-75
2021/01/27 03:37:52;;;;;;;3.76;2.66;;;3.30;99.90;;;4.86;96.42;101299.66;1712777;74;24476;-76
2021/01/27 03:40:17;;;;;;;3.48;2.35;;;3.20;99.90;;;4.93;96.36;101290.08;1703301;74;25238;-76
2021/01/27 03:42:40;;;;;;;2.61;2.05;;;3.20;99.90;;;4.85;96.84;101292.75;1703473;74;24442;-75
2021/01/27 03:45:01;;;;;;;3.95;2.01;;;3.20;99.90;;;4.87;96.80;101284.24;1703448;75;25076;-73
2021/01/27 03:47:22;;;;;;;3.54;2.27;;;3.20;99.90;;;4.76;97.02;101273.91;1712264;74;25049;-74
2021/01/27 03:49:42;;;;;;;2.37;2.05;;;3.10;99.90;;;4.63;97.67;101280.27;1704856;74;24977;-76
2021/01/27 03:52:03;;;;;;;3.74;2.50;;;3.00;99.90;;;4.70;97.59;101265.92;1706965;74;24544;-75
2021/01/27 03:54:23;;;;;;;3.67;2.91;;;3.00;99.90;;;4.76;97.40;101271.33;1711093;74;24479;-75
2021/01/27 03:56:47;;;;;;;2.76;2.47;;;2.90;99.90;;;4.73;98.55;101266.05;1708479;73;24925;-75
2021/01/27 03:59:03;;;;;;;4.81;2.55;;;2.90;99.90;;;4.74;98.26;101259.20;1703349;74;24530;-75
2021/01/27 04:01:24;;;;;;;4.93;2.55;;;2.80;99.90;;;4.58;98.91;101252.11;1704569;74;24511;-75
2021/01/27 04:03:42;;;;;;;4.18;2.56;;;2.80;99.90;;;4.78;98.64;101251.64;1703683;74;24507;-76
2021/01/27 04:05:59;;;;;;;3.82;2.96;;;2.80;99.90;;;4.79;98.84;101250.80;1711840;74;24883;-75
2021/01/27 04:08:16;;;;;;;3.11;2.77;;;2.90;99.90;;;4.91;99.05;101238.81;1703577;74;25111;-76
2021/01/27 04:10:34;;;;;;;4.32;2.36;;;2.90;99.90;;;4.84;98.76;101243.28;1703447;74;24477;-76
2021/01/27 04:12:52;;;;;;;2.56;2.26;;;2.90;99.90;;;4.68;99.06;101237.50;1725402;74;24439;-77
2021/01/27 04:15:13;;;;;;;2.60;2.39;;;2.90;99.90;;;4.66;99.74;101243.42;1703242;74;24595;-76
2021/01/27 04:17:31;;;;;;;3.88;2.27;;;3.00;99.90;;;4.79;99.37;101225.45;1703497;74;24914;-75
2021/01/27 04:19:49;;;;;;;3.22;2.69;;;3.00;99.90;;;4.81;99.13;101222.48;1704144;75;25017;-78
2021/01/27 04:22:08;;;;;;;3.12;2.52;;;3.00;99.90;;;4.90;99.26;101224.17;1703686;74;24462;-74
2021/01/27 04:24:23;;;;;;;2.51;2.30;;;3.10;99.90;;;4.97;98.86;101226.14;1703723;74;24489;-77
2021/01/27 04:26:39;;;;;;;2.71;2.29;;;3.10;99.90;;;4.77;99.32;101227.08;1704863;74;24597;-75
2021/01/27 04:28:56;;;;;;;3.50;2.67;;;3.10;99.90;;;4.78;99.72;101220.69;1714574;74;24903;-75
2021/01/27 04:31:13;;;;;;;2.02;1.81;;;3.10;99.90;;;4.83;99.68;101246.66;1703838;74;24559;-75
2021/01/27 04:33:29;;;;;;;3.06;2.57;;;3.10;99.90;;;4.87;99.29;101230.50;1702610;74;24588;-76
2021/01/27 04:35:45;;;;;;;3.13;2.29;;;3.20;99.90;;;4.90;99.95;101215.14;1704204;74;24473;-75
2021/01/27 04:38:03;;;;;;;3.73;2.79;;;3.20;99.90;;;4.84;99.66;101202.86;1705494;74;24997;-76
2021/01/27 04:40:24;;;;;;;3.33;2.57;;;3.20;99.90;;;4.68;100.00;101196.63;1710507;74;24870;-76
2021/01/27 04:42:40;;;;;;;3.53;2.52;;;3.10;99.90;;;4.75;100.00;101187.03;1705615;74;24476;-74
2021/01/27 04:44:59;;;;;;;2.92;2.45;;;3.10;99.90;;;4.74;100.00;101173.69;1706171;74;24523;-74
2021/01/27 04:47:21;;;;;;;2.83;2.00;;;3.00;99.90;;;4.83;100.00;101176.61;1717950;73;24455;-74
2021/01/27 04:49:43;;;;;;;3.38;2.62;;;3.00;99.90;;;4.81;100.00;101172.19;1703692;74;24680;-76
2021/01/27 04:52:04;;;;;;;3.48;2.68;;;3.00;99.90;;;4.68;100.00;101170.44;1703804;74;24462;-75
2021/01/27 04:54:31;;;;;;;4.54;2.90;;;2.90;99.90;;;4.65;100.00;101170.72;1694518;75;24438;-75
2021/01/27 04:57:31;;;;;;;3.75;2.18;;;3.00;99.90;;;4.68;100.00;101169.98;1710973;73;25010;-75
2021/01/27 05:00:08;;;;;;;2.43;2.21;;;3.00;99.90;;;4.84;100.00;101165.89;1686576;74;24431;-75
2021/01/27 05:02:44;;;;;;;4.82;3.25;;;3.00;99.90;;;4.77;100.00;101155.74;1718166;73;24571;-75
2021/01/27 05:05:10;;;;;;;2.46;2.26;;;3.00;99.90;;;4.76;100.00;101154.39;1709574;74;24520;-75
2021/01/27 05:07:32;;;;;;;3.59;2.53;;;3.00;99.90;;;4.68;100.00;101134.73;1713413;74;24591;-74
2021/01/27 05:09:54;;;;;;;4.44;3.30;;;3.00;99.90;;;4.66;100.00;101130.80;1707012;74;24890;-75
2021/01/27 05:12:13;;;;;;;3.30;2.45;;;3.00;99.90;;;4.78;100.00;101125.64;1710593;74;24567;-75
2021/01/27 05:14:34;;;;;;;3.57;2.66;;;3.00;99.90;;;4.72;100.00;101129.28;1704217;74;24442;-74
2021/01/27 05:16:53;;;;;;;3.53;2.99;;;3.00;99.90;;;4.69;100.00;101123.18;1703392;74;24540;-75
2021/01/27 05:19:11;;;;;;;3.41;2.76;;;2.90;99.90;;;4.68;100.00;101126.14;1714875;74;24455;-74
2021/01/27 05:21:32;;;;;;;3.53;2.89;;;2.90;99.90;;;4.57;100.00;101121.84;1703045;75;25245;-75
2021/01/27 05:23:49;;;;;;;5.49;2.93;;;2.90;99.90;;;4.61;100.00;101125.91;1703494;74;24465;-75
2021/01/27 05:26:11;;;;;;;3.56;3.26;;;2.80;99.90;;;4.44;100.00;101111.89;1705185;74;24473;-76
2021/01/27 05:28:33;;;;;;;4.61;3.62;;;2.80;99.90;;;4.55;100.00;101113.19;1712459;74;25022;-75
2021/01/27 05:30:54;;;;;;;4.52;3.25;;;2.70;99.90;;;4.57;100.00;101110.23;1704235;75;24511;-75
2021/01/27 05:33:10;;;;;;;3.79;2.95;;;2.70;99.90;;;4.38;100.00;101110.34;1711989;74;24456;-75
2021/01/27 05:35:34;;;;;;;3.18;2.84;;;2.60;99.90;;;4.31;100.00;101115.69;1714671;74;24479;-74
2021/01/27 05:37:52;;;;;;;3.50;3.13;;;2.60;99.90;;;4.25;100.00;101102.97;1703433;75;24920;-75
2021/01/27 05:40:14;;;;;;;4.65;3.50;;;2.50;99.90;;;4.37;100.00;101108.59;1704395;74;24632;-74
2021/01/27 05:42:36;;;;;;;4.30;2.91;;;2.50;99.90;;;4.45;100.00;101106.80;1713136;74;24930;-75
2021/01/27 05:44:57;;;;;;;4.12;2.95;;;2.40;99.90;;;4.38;100.00;101101.31;1704486;73;24898;-74
2021/01/27 05:50:35;;;;;;;4.59;2.41;;;2.50;99.90;;;4.47;100.00;101075.91;1716433;72;25622;-77
2021/01/27 05:52:53;;;;;;;4.63;3.20;;;2.40;99.90;;;4.34;100.00;101075.86;1716727;74;24520;-76
2021/01/27 05:55:18;;;;;;;2.57;2.34;;;2.40;99.90;;;4.18;100.00;101075.17;1714679;74;24923;-75
2021/01/27 05:57:35;;;;;;;3.54;2.90;;;2.40;99.90;;;4.16;100.00;101079.38;1701982;74;24498;-74
2021/01/27 06:00:14;;;;;;;3.37;2.59;;;2.30;99.90;;;4.21;100.00;101080.45;1704079;74;24869;-74
2021/01/27 06:02:35;;;;;;;4.09;2.72;;;2.30;99.90;;;4.18;100.00;101082.52;1708596;74;24483;-76
2021/01/27 06:05:00;;;;;;;4.31;3.63;;;2.30;99.90;;;4.10;100.00;101068.44;1709600;74;24858;-75
2021/01/27 06:07:27;;;;;;;3.67;3.32;;;2.30;99.90;;;4.31;100.00;101077.03;1715413;74;24506;-76
2021/01/27 06:09:50;;;;;;;4.93;3.74;;;2.30;99.90;;;4.26;100.00;101060.50;1713768;74;24480;-74
2021/01/27 06:12:13;;;;;;;4.71;3.29;;;2.30;99.90;;;4.43;100.00;101062.02;1706941;74;24511;-76
2021/01/27 06:14:33;;;;;;;3.53;2.71;;;2.30;99.90;;;4.28;100.00;101076.02;1712595;74;24437;-74
2021/01/27 06:16:54;;;;;;;3.79;3.34;;;2.30;99.90;;;4.22;100.00;101066.34;1710547;74;24500;-74
2021/01/27 06:19:32;;;;;;;3.42;2.86;;;2.30;99.90;;;4.33;100.00;101075.36;1706912;74;24941;-78
2021/01/27 06:22:25;;;;;;;4.02;3.12;;;2.30;99.90;;;4.16;100.00;101064.81;1704944;74;24455;-74
2021/01/27 06:25:07;;;;;;;5.18;3.00;;;2.30;99.90;;;4.24;100.00;101062.53;1699494;74;24478;-77
2021/01/27 06:27:50;;;;;;;3.83;3.39;;;2.30;99.90;;;4.22;100.00;101048.30;1703144;74;24492;-75
2021/01/27 06:30:51;;;;;;;3.97;3.58;;;2.30;99.90;;;4.23;100.00;101055.23;1702679;74;24434;-76
2021/01/27 06:33:37;;;;;;;4.00;3.01;;;2.30;99.90;;;4.15;100.00;101053.16;1701363;74;24504;-75
2021/01/27 06:36:15;;;;;;;4.31;3.65;;;2.30;99.90;;;4.17;100.00;101061.84;1708998;74;24893;-75
2021/01/27 06:38:45;;;;;;;4.91;4.24;;;2.30;99.90;;;4.28;100.00;101049.81;1715127;74;24512;-75
2021/01/27 06:41:24;;;;;;;5.00;4.55;;;2.30;99.90;;;4.31;100.00;101055.12;1711036;74;25014;-75
2021/01/27 06:44:00;;;;;;;4.29;3.92;;;2.30;99.90;;;4.30;100.00;101049.91;1715759;74;24482;-75
2021/01/27 06:46:48;;;;;;;3.93;3.53;;;2.30;99.90;;;4.15;100.00;101052.76;1669147;75;24592;-76
2021/01/27 06:49:23;;;;;;;5.55;5.05;;;2.30;99.90;;;4.22;100.00;101050.87;1710812;74;24499;-77
2021/01/27 06:51:53;;;;;;;4.97;4.43;;;2.30;99.90;;;4.23;100.00;101053.94;1706363;74;24469;-74
2021/01/27 06:55:03;;;;;;;4.06;3.58;;;2.30;99.90;;;4.20;100.00;101064.53;1711678;74;24485;-73
2021/01/27 06:57:25;;;;;;;3.34;2.98;;;2.30;99.90;;;4.10;100.00;101064.98;1692909;74;24477;-74
2021/01/27 07:00:22;;;;;;;3.65;3.25;;;2.20;99.90;;;4.10;100.00;101071.42;1705736;74;25057;-76
2021/01/27 07:03:46;;;;;;;7.68;3.85;;;2.20;99.90;;;4.11;100.00;101057.73;1712226;74;24554;-75
2021/01/27 07:06:56;;;;;;;3.88;3.19;;;2.20;99.90;;;4.13;100.00;101065.09;1701800;74;24558;-75
2021/01/27 07:09:33;;;;;;;6.41;4.93;;;2.20;99.90;;;4.07;100.00;101070.90;1696490;74;24563;-75
2021/01/27 07:12:08;;;;;;;5.78;5.25;;;2.20;99.90;;;4.24;100.00;101053.11;1701082;74;24500;-74
2021/01/27 07:14:47;;;;;;;5.97;5.27;;;2.20;99.90;;;4.21;100.00;101038.81;1691218;74;24480;-75
2021/01/27 07:17:29;;;;;;;5.58;5.06;;;2.20;99.90;;;4.15;100.00;101038.59;1692740;74;24521;-74
2021/01/27 07:20:13;;;;;;;6.53;5.90;;;2.20;99.90;;;4.21;100.00;101041.40;1686546;74;24500;-73
2021/01/27 07:22:36;;;;;;;3.71;3.35;;;2.20;99.90;;;4.28;100.00;101042.52;1659707;74;24629;-76
2021/01/27 07:25:04;;;;;;;6.78;6.18;;;2.30;99.90;;;4.26;100.00;101026.11;1699743;74;24528;-74
2021/01/27 07:27:38;;;;;;;5.98;5.24;;;2.30;99.90;;;4.30;100.00;101022.84;1698338;74;24472;-76
2021/01/27 07:30:03;;;;;;;5.29;4.51;;;2.30;99.90;;;4.21;100.00;101018.60;1696417;74;24939;-75
2021/01/27 07:32:23;;;;;;;5.24;4.67;;;2.30;99.90;;;4.12;100.00;101010.13;1696854;74;25036;-75
2021/01/27 07:34:47;;;;;;;4.54;4.09;;;2.30;99.90;;;4.25;100.00;101013.63;1704185;74;25011;-76
2021/01/27 07:37:12;;;;;;;6.48;5.72;;;2.30;99.90;;;4.15;100.00;101017.97;1696710;74;24525;-74
2021/01/27 07:39:34;;;;;;;6.64;6.00;;;2.30;99.90;;;4.26;100.00;101018.38;1701728;74;24485;-76
2021/01/27 07:42:15;;;;;;;7.66;6.87;;;2.40;99.90;;;4.36;100.00;101023.92;1707238;74;24531;-75
2021/01/27 07:44:41;;;;;;;4.90;4.50;;;2.40;99.90;;;4.46;100.00;101018.70;1694705;74;25045;-76
2021/01/27 07:47:00;;;;;;;4.99;4.51;;;2.40;99.90;;;4.28;100.00;101025.33;1693845;74;24974;-74
2021/01/27 07:49:31;;;;;;;5.43;4.93;;;2.40;99.90;;;4.39;100.00;101021.46;1697067;74;24493;-76
2021/01/27 07:51:56;;;;;;;6.34;5.74;;;2.50;99.90;;;4.34;100.00;101022.12;1708064;74;24503;-75
2021/01/27 07:54:18;;;;;;;4.34;3.96;;;2.50;99.90;;;4.41;100.00;101012.09;1703700;73;24865;-75
2021/01/27 07:56:39;;;;;;;5.65;5.10;;;2.50;99.90;;;4.33;100.00;101001.05;1706686;74;24507;-77
2021/01/27 07:59:00;;;;;;;7.30;6.60;;;2.50;99.90;;;4.34;100.00;100985.64;1704340;74;24456;-76
2021/01/27 08:01:26;;;;;;;6.43;5.80;;;2.50;99.90;;;4.56;100.00;100984.32;1694160;74;24482;-78
2021/01/27 08:03:56;;;;;;;7.72;6.98;;;2.60;99.90;;;4.50;100.00;100978.91;1702318;74;24926;-74
2021/01/27 08:06:20;;;;;;;5.31;4.76;;;2.60;99.90;;;4.62;100.00;100990.09;1701975;74;24513;-75
2021/01/27 08:08:57;;;;;;;8.74;7.94;;;2.60;99.90;;;4.44;100.00;100977.41;1700817;74;24484;-77
2021/01/27 08:11:23;;;;;;;6.87;6.23;;;2.60;99.90;;;4.68;100.00;100992.03;1691497;74;25202;-76
2021/01/27 08:13:44;;;;;;;9.43;8.29;;;2.70;99.90;;;4.71;100.00;100998.59;1671114;74;24486;-74
2021/01/27 08:16:30;;;;;;;8.54;7.73;;;2.70;99.90;;;4.76;100.00;100996.63;1703100;74;25127;-77
2021/01/27 08:19:26;;;;;;;7.12;6.41;;;2.70;99.90;;;4.64;100.00;100990.63;1695774;74;24967;-76
2021/01/27 08:22:13;;;;;;;6.77;5.88;;;2.70;99.90;;;4.57;100.00;100993.80;1694923;74;24480;-75
2021/01/27 08:24:53;;;;;;;8.35;7.57;;;2.70;99.90;;;4.71;100.00;100981.39;1690223;74;24539;-76
2021/01/27 08:29:40;;;;;;;6.61;5.90;;;2.80;99.90;;;4.84;100.00;101004.66;1798279;69;32357;-75
2021/01/27 08:32:30;;;;;;;5.05;4.57;;;2.80;99.90;;;4.76;100.00;100996.63;1777113;70;24483;-78
2021/01/27 08:34:49;;;;;;;9.29;8.37;;;2.80;99.90;;;4.62;100.00;100993.95;1767293;71;24530;-75
2021/01/27 08:37:10;;;;;;;8.31;7.58;;;2.80;99.90;;;4.88;100.00;100985.87;1772732;70;24475;-76
2021/01/27 08:39:29;;;;;;;7.33;6.61;;;2.90;99.90;;;4.79;100.00;100979.96;1766833;71;24507;-74
2021/01/27 08:41:53;;;;;;;9.66;8.70;;;2.90;99.90;;;4.85;100.00;100980.61;1764562;71;24506;-73
2021/01/27 08:44:14;;;;;;;7.02;6.35;;;2.90;99.90;;;4.96;100.00;100978.88;1770961;71;24540;-74
2021/01/27 08:46:45;;;;;;;6.33;5.70;;;2.90;99.90;;;4.78;100.00;100975.64;1773584;71;24902;-74
2021/01/27 08:49:06;;;;;;;7.79;7.06;;;3.00;99.90;;;4.90;100.00;100990.25;1767390;71;24508;-75
2021/01/27 08:51:53;;;;;;;7.03;5.91;;;3.00;99.90;;;4.92;100.00;100996.75;1769035;70;24571;-78
2021/01/27 08:54:50;;;;;;;8.38;7.64;;;3.00;99.90;;;4.91;100.00;100993.31;1767380;71;24863;-77
2021/01/27 08:57:28;;;;;;;8.24;7.46;;;3.10;99.90;;;5.07;100.00;100990.45;1775792;71;24667;-80
2021/01/27 09:00:04;;;;;;;6.50;5.89;;;3.10;99.90;;;5.03;100.00;100985.98;1768110;71;24454;-75
2021/01/27 09:02:49;;;;;;;7.67;6.95;;;3.10;99.90;;;4.96;100.00;100990.49;1777240;71;24516;-78
2021/01/27 09:05:13;;;;;;;8.69;7.75;;;3.10;99.90;;;4.96;100.00;100998.23;1772701;71;24490;-78
2021/01/27 09:07:29;;;;;;;8.60;7.70;;;3.10;99.90;;;5.12;100.00;100995.77;1779447;71;24581;-79
2021/01/27 09:09:46;;;;;;;7.38;6.69;;;3.10;99.90;;;5.15;100.00;100989.41;1774720;71;24437;-77
2021/01/27 09:12:07;;;;;;;5.13;4.67;;;3.20;99.90;;;5.08;100.00;100990.91;1773006;70;24481;-75
2021/01/27 09:14:24;;;;;;;8.44;7.64;;;3.20;99.90;;;5.01;100.00;101000.97;1772809;70;25125;-76
2021/01/27 09:16:45;;;;;;;6.88;6.21;;;3.20;99.90;;;5.13;100.00;100995.81;1775475;71;24522;-76
2021/01/27 09:19:09;;;;;;;7.49;6.82;;;3.20;99.90;;;5.15;100.00;101003.20;1775097;70;25016;-74
2021/01/27 09:21:28;;;;;;;6.06;5.48;;;3.30;99.90;;;5.16;100.00;101005.35;1768240;71;24590;-77
2021/01/27 09:23:57;;;;;;;5.54;5.00;;;3.30;99.90;;;5.16;100.00;101013.98;1776292;71;24585;-76
2021/01/27 09:26:22;;;;;;;4.86;4.30;;;3.30;99.90;;;5.16;100.00;101002.37;1776760;71;24547;-74
2021/01/27 09:28:43;;;;;;;7.14;6.50;;;3.30;99.90;;;5.18;100.00;101004.60;1739430;72;24405;-76
2021/01/27 09:31:00;;;;;;;8.17;7.41;;;3.30;99.90;;;5.28;100.00;101010.52;1771210;71;24500;-76
2021/01/27 09:33:33;;;;;;;8.10;7.40;;;3.30;99.90;;;5.26;100.00;101011.30;1773080;71;24491;-75
2021/01/27 09:36:04;;;;;;;7.44;5.81;;;3.40;99.90;;;5.23;100.00;101010.77;1775233;70;24544;-75
2021/01/27 09:38:25;;;;;;;7.24;6.49;;;3.40;99.90;;;5.29;100.00;101011.41;1770480;71;24538;-77
2021/01/27 09:40:46;;;;;;;7.37;6.69;;;3.40;99.90;;;5.26;100.00;101011.30;1765154;71;24441;-74
2021/01/27 09:43:07;;;;;;;7.31;6.64;;;3.40;99.90;;;5.36;100.00;101018.55;1758878;71;25065;-75
2021/01/27 09:45:31;;;;;;;8.29;7.23;;;3.50;99.90;;;5.37;100.00;101016.42;1772650;71;25198;-74
2021/01/27 09:48:27;;;;;;;7.90;7.08;;;3.40;99.90;;;5.31;100.00;101019.66;1776719;71;24583;-75
2021/01/27 09:50:49;;;;;;;6.19;5.60;;;3.50;99.90;;;5.34;100.00;101025.36;1767686;71;25048;-76
2021/01/27 09:53:10;;;;;;;7.15;6.46;;;3.50;99.90;;;5.44;100.00;101023.53;1765588;70;24977;-75
2021/01/27 09:55:30;;;;;;;7.93;7.14;;;3.50;99.90;;;5.40;100.00;101022.58;1770113;71;24435;-76
2021/01/27 09:57:51;;;;;;;6.94;6.31;;;3.60;99.90;;;5.50;100.00;101025.05;1777629;71;24545;-73
2021/01/27 10:00:33;;;;;;;8.45;7.63;;;3.60;99.90;;;5.41;100.00;101028.19;1746466;72;24611;-75
2021/01/27 10:02:51;;;;;;;7.66;6.84;;;3.60;99.90;;;5.45;100.00;101027.89;1772606;70;24571;-76
2021/01/27 10:08:33;;;;;;;8.15;7.12;;;3.70;99.90;;;5.66;100.00;101027.28;1741819;72;25335;-75
2021/01/27 10:11:05;;;;;;;8.55;7.73;;;3.60;99.90;;;5.64;100.00;101032.41;1720715;73;24617;-74
2021/01/27 10:13:26;;;;;;;9.01;8.15;;;3.70;99.90;;;5.71;100.00;101029.61;1717214;73;24624;-74
2021/01/27 10:15:45;;;;;;;9.33;8.41;;;3.70;99.90;;;5.60;100.00;101036.13;1717073;73;25240;-76
2021/01/27 10:18:17;;;;;;;10.42;9.34;;;3.80;99.90;;;5.67;100.00;101030.36;1683915;74;24548;-75
2021/01/27 10:20:42;;;;;;;10.06;8.43;;;3.80;99.90;;;5.68;100.00;101031.70;1690396;73;24506;-76
2021/01/27 10:23:06;;;;;;;7.62;6.93;;;3.70;99.90;;;5.69;100.00;101041.63;1718356;73;24511;-75
2021/01/27 10:25:35;;;;;;;8.90;8.03;;;3.80;99.90;;;5.67;100.00;101033.83;1725815;73;24542;-75
2021/01/27 10:28:10;;;;;;;8.74;7.85;;;3.80;99.90;;;5.70;100.00;101030.05;1725643;73;24982;-77
2021/01/27 10:30:46;;;;;;;8.47;7.58;;;3.80;99.90;;;5.74;100.00;101025.84;1718869;73;25037;-75